Time;durP1;ratioP1;P1;durP2;ratioP2;P2;SDS_P1;SDS_P2;PMS_P1;PMS_P2;Temp;Humidity;BMP_temperature;BMP_pressure;BME280_temperature;BME280_humidity;BME280_pressure;Samples;Min_cycle;Max_cycle;Signal;HPM_P1;HPM_P2
2023/11/19 00:00:29;;;;;;;11.10;6.90;;;;;;;2.07;73.05;101405.91;107593;1251;108502;-61
2023/11/19 00:03:17;;;;;;;13.90;7.30;;;;;;;2.06;73.28;101404.36;107626;1251;98069;-62
2023/11/19 00:05:47;;;;;;;16.40;6.70;;;;;;;2.03;73.41;101406.79;107667;1251;97840;-62
2023/11/19 00:08:15;;;;;;;10.80;6.20;;;;;;;2.03;73.22;101401.30;107640;1251;112239;-61
2023/11/19 00:10:43;;;;;;;12.10;6.90;;;;;;;2.02;72.70;101406.64;107631;1253;110071;-61
2023/11/19 00:13:12;;;;;;;10.80;6.70;;;;;;;2.01;72.97;101409.88;107616;1254;109186;-61
2023/11/19 00:15:40;;;;;;;11.80;7.00;;;;;;;1.99;72.70;101409.41;107497;1251;97997;-62
2023/11/19 00:18:08;;;;;;;10.00;6.30;;;;;;;1.98;72.37;101406.45;107612;1251;98473;-60
2023/11/19 00:20:37;;;;;;;11.00;5.30;;;;;;;1.97;72.14;101407.23;107550;1252;111679;-61
2023/11/19 00:23:05;;;;;;;8.60;6.10;;;;;;;1.93;72.15;101408.08;107626;1253;109315;-63
2023/11/19 00:25:33;;;;;;;10.30;6.10;;;;;;;1.92;71.99;101410.63;107418;1254;108109;-59
2023/11/19 00:28:02;;;;;;;12.70;6.60;;;;;;;1.89;71.91;101410.38;107633;1252;97700;-59
2023/11/19 00:30:31;;;;;;;11.70;6.10;;;;;;;1.86;71.80;101405.88;107592;1253;97700;-60
2023/11/19 00:33:00;;;;;;;13.00;5.80;;;;;;;1.86;72.01;101412.63;107585;1251;112068;-60
2023/11/19 00:35:28;;;;;;;7.50;4.90;;;;;;;1.87;71.93;101410.29;107567;1251;108537;-59
2023/11/19 00:37:57;;;;;;;10.00;6.00;;;;;;;1.85;71.51;101417.95;107653;1251;108103;-60
2023/11/19 00:40:26;;;;;;;8.40;4.30;;;;;;;1.83;71.77;101419.27;107481;1253;97867;-60
2023/11/19 00:42:54;;;;;;;9.20;5.10;;;;;;;1.83;71.16;101420.53;107621;1253;98351;-60
2023/11/19 00:45:23;;;;;;;8.90;4.90;;;;;;;1.81;71.68;101420.08;107654;1253;111857;-60
2023/11/19 00:47:52;;;;;;;9.80;6.10;;;;;;;1.82;71.35;101417.75;107412;1253;109957;-60
2023/11/19 00:50:20;;;;;;;8.90;5.60;;;;;;;1.80;71.50;101420.84;107593;1253;109195;-60
2023/11/19 00:52:48;;;;;;;8.40;4.90;;;;;;;1.80;70.77;101418.34;107621;1251;97882;-60
2023/11/19 00:55:17;;;;;;;9.90;4.80;;;;;;;1.78;70.86;101427.45;107671;1251;97884;-60
2023/11/19 00:57:45;;;;;;;11.90;6.10;;;;;;;1.75;70.91;101426.70;107627;1251;111399;-58
2023/11/19 01:00:24;;;;;;;8.90;5.60;;;;;;;1.71;71.09;101427.38;107635;1251;109420;-61
2023/11/19 01:02:52;;;;;;;10.50;5.70;;;;;;;1.68;71.05;101434.06;107415;1253;108290;-61
2023/11/19 01:05:22;;;;;;;10.20;5.40;;;;;;;1.65;71.13;101433.82;107621;1253;98979;-61
2023/11/19 01:07:53;;;;;;;7.20;4.80;;;;;;;1.62;70.63;101436.39;107677;1252;98518;-60
2023/11/19 01:10:24;;;;;;;11.00;5.20;;;;;;;1.62;70.84;101440.52;107652;1253;110450;-61
2023/11/19 01:12:53;;;;;;;9.10;5.70;;;;;;;1.62;70.53;101442.63;107650;1251;109344;-61
2023/11/19 01:15:22;;;;;;;8.10;4.80;;;;;;;1.61;70.77;101450.26;107633;1251;106852;-60
2023/11/19 01:17:52;;;;;;;6.40;4.70;;;;;;;1.60;70.56;101451.34;107514;1253;97840;-61
2023/11/19 01:20:21;;;;;;;9.60;4.80;;;;;;;1.57;70.30;101455.33;107625;1253;97806;-61
2023/11/19 01:22:50;;;;;;;7.30;4.90;;;;;;;1.56;70.34;101458.39;107621;1251;110963;-59
2023/11/19 01:25:19;;;;;;;7.20;4.60;;;;;;;1.55;70.27;101464.27;107658;1251;107795;-60
2023/11/19 01:27:48;;;;;;;6.80;5.00;;;;;;;1.54;69.33;101461.64;107457;1256;108648;-60
2023/11/19 01:30:17;;;;;;;6.30;4.60;;;;;;;1.51;69.22;101465.31;107634;1253;97845;-62
2023/11/19 01:32:45;;;;;;;6.50;4.70;;;;;;;1.50;68.87;101463.23;107635;1253;98445;-60
2023/11/19 01:35:14;;;;;;;8.70;5.50;;;;;;;1.48;68.70;101461.17;107660;1253;111289;-61
2023/11/19 01:37:42;;;;;;;11.90;4.70;;;;;;;1.48;68.52;101463.67;107645;1253;108492;-61
2023/11/19 01:40:11;;;;;;;7.20;4.20;;;;;;;1.45;68.55;101460.58;107606;1251;107942;-60
2023/11/19 01:42:40;;;;;;;7.10;4.60;;;;;;;1.43;67.79;101457.65;107473;1252;97870;-60
2023/11/19 01:45:22;;;;;;;6.90;5.00;;;;;;;1.41;67.68;101459.67;107629;1253;97883;-60
2023/11/19 01:47:51;;;;;;;9.70;5.50;;;;;;;1.40;67.41;101455.48;107629;1253;111194;-59
2023/11/19 01:50:21;;;;;;;6.00;5.00;;;;;;;1.37;68.05;101455.59;107627;1253;108761;-61
2023/11/19 01:52:52;;;;;;;8.10;4.90;;;;;;;1.37;67.91;101454.53;107648;1252;108639;-61
2023/11/19 01:55:21;;;;;;;9.00;6.20;;;;;;;1.36;68.21;101451.93;107661;1252;97854;-60
2023/11/19 01:57:53;;;;;;;6.90;5.00;;;;;;;1.35;68.61;101451.59;107692;1251;97849;-61
2023/11/19 02:00:21;;;;;;;8.60;5.00;;;;;;;1.35;68.46;101451.41;107673;1251;110495;-61
2023/11/19 02:02:52;;;;;;;5.70;4.50;;;;;;;1.35;68.31;101453.94;107499;1253;109404;-61
2023/11/19 02:05:21;;;;;;;7.50;5.40;;;;;;;1.30;68.08;101455.67;107435;1253;107319;-62
2023/11/19 02:07:51;;;;;;;8.90;5.00;;;;;;;1.29;68.36;101452.58;107624;1251;97714;-61
2023/11/19 02:10:19;;;;;;;8.20;5.40;;;;;;;1.30;68.23;101452.86;107678;1251;97797;-62
2023/11/19 02:12:47;;;;;;;9.00;5.80;;;;;;;1.31;68.27;101454.95;107484;1253;111132;-65
2023/11/19 02:15:19;;;;;;;6.60;5.20;;;;;;;1.30;68.16;101456.77;107622;1251;109035;-61
2023/11/19 02:17:47;;;;;;;9.50;5.60;;;;;;;1.28;68.30;101457.75;107586;1251;107968;-62
2023/11/19 02:20:15;;;;;;;8.40;5.60;;;;;;;1.25;68.37;101465.96;107411;1253;97872;-60
2023/11/19 02:22:44;;;;;;;8.80;5.90;;;;;;;1.22;68.98;101465.70;107582;1251;97842;-59
2023/11/19 02:25:30;;;;;;;9.20;6.00;;;;;;;1.19;68.97;101465.11;107672;1251;111821;-61
2023/11/19 02:28:00;;;;;;;9.90;5.70;;;;;;;1.18;69.44;101465.15;107602;1251;109079;-61
2023/11/19 02:30:29;;;;;;;9.40;6.30;;;;;;;1.17;69.61;101471.19;107641;1256;108742;-60
2023/11/19 02:33:00;;;;;;;6.90;5.60;;;;;;;1.19;69.92;101466.73;107604;1253;97819;-60
2023/11/19 02:35:31;;;;;;;8.40;5.60;;;;;;;1.20;70.26;101469.52;107667;1252;98477;-60
2023/11/19 02:38:00;;;;;;;7.10;5.10;;;;;;;1.22;70.34;101471.72;107555;1253;110672;-59
2023/11/19 02:40:28;;;;;;;8.70;6.20;;;;;;;1.21;70.01;101470.69;107619;1253;109023;-59
2023/11/19 02:42:57;;;;;;;13.00;6.30;;;;;;;1.18;70.43;101471.52;107588;1252;107158;-60
2023/11/19 02:45:26;;;;;;;8.70;6.20;;;;;;;1.16;70.54;101466.11;107625;1253;97842;-61
2023/11/19 02:47:55;;;;;;;10.10;6.80;;;;;;;1.17;70.58;101469.44;107590;1251;97834;-61
2023/11/19 02:50:25;;;;;;;7.70;4.90;;;;;;;1.17;69.68;101467.32;107647;1252;112343;-61
2023/11/19 02:52:56;;;;;;;10.20;5.70;;;;;;;1.15;69.21;101469.55;107641;1252;109746;-61
2023/11/19 02:55:27;;;;;;;7.90;5.90;;;;;;;1.10;69.51;101469.55;107600;1253;108656;-61
2023/11/19 02:57:59;;;;;;;8.50;5.70;;;;;;;1.07;68.63;101461.33;107527;1252;97846;-62
2023/11/19 03:00:35;;;;;;;7.00;5.30;;;;;;;1.05;68.49;101458.05;107660;1253;97873;-61
2023/11/19 03:03:18;;;;;;;12.70;5.70;;;;;;;1.03;68.54;101460.61;107442;1253;111826;-61
2023/11/19 03:05:47;;;;;;;8.40;5.60;;;;;;;1.00;68.93;101462.66;107566;1251;109583;-60
2023/11/19 03:08:16;;;;;;;10.50;6.10;;;;;;;0.97;69.18;101467.73;107602;1253;108136;-60
2023/11/19 03:10:47;;;;;;;8.50;5.10;;;;;;;0.97;68.62;101467.01;107418;1252;97818;-60
2023/11/19 03:13:19;;;;;;;6.70;4.90;;;;;;;0.96;68.21;101467.21;107674;1253;98466;-60
2023/11/19 03:15:47;;;;;;;7.30;4.60;;;;;;;0.96;67.51;101467.77;107627;1253;112388;-61
2023/11/19 03:18:16;;;;;;;7.10;4.60;;;;;;;0.97;66.63;101473.56;107604;1250;109930;-60
2023/11/19 03:20:46;;;;;;;6.40;5.10;;;;;;;0.99;65.94;101480.54;107626;1251;108437;-59
2023/11/19 03:23:15;;;;;;;6.60;4.60;;;;;;;0.97;66.04;101477.27;107634;1251;97720;-61
2023/11/19 03:25:43;;;;;;;7.40;4.70;;;;;;;0.95;66.22;101478.02;107642;1251;97701;-61
2023/11/19 03:28:12;;;;;;;7.20;5.40;;;;;;;0.94;65.82;101471.18;107608;1252;111858;-60
2023/11/19 03:30:40;;;;;;;6.30;4.80;;;;;;;0.92;66.02;101476.72;107671;1252;108852;-60
2023/11/19 03:33:08;;;;;;;5.40;4.20;;;;;;;0.91;65.58;101472.35;107659;1252;107628;-61
2023/11/19 03:35:37;;;;;;;6.70;4.90;;;;;;;0.87;65.47;101476.20;107616;1255;97839;-61
2023/11/19 03:38:05;;;;;;;5.20;4.10;;;;;;;0.84;65.76;101480.02;107580;1251;99619;-61
2023/11/19 03:40:33;;;;;;;5.20;3.50;;;;;;;0.81;65.88;101487.02;107658;1251;112072;-61
2023/11/19 03:43:04;;;;;;;5.60;3.60;;;;;;;0.77;64.62;101482.20;107617;1253;109555;-60
2023/11/19 03:45:32;;;;;;;6.50;3.30;;;;;;;0.71;63.72;101482.80;107646;1253;106687;-61
2023/11/19 03:48:01;;;;;;;4.00;3.20;;;;;;;0.61;64.11;101487.00;107585;1251;96425;-59
2023/11/19 03:50:29;;;;;;;4.80;3.70;;;;;;;0.51;64.61;101484.90;107487;1252;98374;-60
2023/11/19 03:52:58;;;;;;;6.40;4.00;;;;;;;0.43;65.03;101484.82;107676;1252;111211;-61
2023/11/19 03:55:26;;;;;;;6.00;3.20;;;;;;;0.36;64.97;101494.26;107671;1253;109018;-60
2023/11/19 03:57:54;;;;;;;6.30;4.70;;;;;;;0.27;64.67;101494.70;107619;1252;107354;-62
2023/11/19 04:00:23;;;;;;;5.00;2.90;;;;;;;0.21;65.11;101495.27;107618;1252;97856;-61
2023/11/19 04:02:51;;;;;;;7.00;4.10;;;;;;;0.18;65.28;101496.44;107609;1253;97823;-61
2023/11/19 04:05:20;;;;;;;5.40;3.90;;;;;;;0.20;64.25;101499.55;107472;1252;112153;-61
2023/11/19 04:07:48;;;;;;;4.20;3.20;;;;;;;0.19;64.33;101514.04;107448;1253;109905;-61
2023/11/19 04:10:17;;;;;;;3.90;3.20;;;;;;;0.19;64.51;101519.52;107657;1252;107122;-62
2023/11/19 04:12:46;;;;;;;5.50;3.90;;;;;;;0.21;64.65;101513.98;107579;1255;97855;-59
2023/11/19 04:15:14;;;;;;;5.30;3.90;;;;;;;0.19;64.88;101520.03;107469;1252;97714;-60
2023/11/19 04:17:42;;;;;;;7.20;4.40;;;;;;;0.19;65.48;101519.14;107642;1251;111151;-59
2023/11/19 04:20:13;;;;;;;7.00;4.20;;;;;;;0.21;65.72;101515.73;107634;1251;109991;-61
2023/11/19 04:22:42;;;;;;;5.80;4.40;;;;;;;0.24;65.45;101510.86;107642;1251;107917;-59
2023/11/19 04:25:11;;;;;;;7.30;4.90;;;;;;;0.24;65.98;101509.81;107576;1254;97704;-60
2023/11/19 04:27:39;;;;;;;8.90;5.70;;;;;;;0.24;66.15;101504.53;107642;1253;97720;-61
2023/11/19 04:30:10;;;;;;;8.40;5.80;;;;;;;0.24;65.65;101498.34;107642;1253;111791;-61
2023/11/19 04:32:39;;;;;;;8.50;5.90;;;;;;;0.23;65.63;101502.97;107702;1251;108563;-60
2023/11/19 04:35:09;;;;;;;9.50;6.30;;;;;;;0.23;65.97;101496.25;107567;1251;107531;-60
2023/11/19 04:37:38;;;;;;;7.90;5.50;;;;;;;0.23;66.36;101495.73;107633;1253;97823;-60
2023/11/19 04:40:09;;;;;;;10.50;5.90;;;;;;;0.24;66.47;101487.92;107644;1251;97736;-60
2023/11/19 04:42:41;;;;;;;10.70;6.70;;;;;;;0.26;66.22;101480.98;107598;1251;110216;-60
2023/11/19 04:45:10;;;;;;;7.60;5.20;;;;;;;0.28;66.51;101483.41;107623;1253;108593;-60
2023/11/19 04:47:39;;;;;;;7.80;6.00;;;;;;;0.30;66.86;101476.61;107663;1251;108581;-60
2023/11/19 04:50:10;;;;;;;8.10;5.60;;;;;;;0.33;66.94;101474.06;107584;1251;97789;-60
2023/11/19 04:52:40;;;;;;;9.10;5.00;;;;;;;0.34;67.12;101465.55;107630;1251;97706;-59
2023/11/19 04:55:11;;;;;;;7.50;5.50;;;;;;;0.35;67.21;101460.55;107601;1254;110346;-60
2023/11/19 04:57:40;;;;;;;8.90;5.70;;;;;;;0.38;67.09;101458.18;107583;1253;109536;-60
2023/11/19 05:00:11;;;;;;;9.50;6.00;;;;;;;0.40;67.13;101453.19;107559;1251;109488;-61
2023/11/19 05:02:42;;;;;;;;;;;;;;;0.43;67.06;101451.30;107550;1251;98521;-60
2023/11/19 05:05:11;;;;;;;8.90;5.90;;;;;;;0.44;67.06;101449.67;107607;1251;97804;-61
2023/11/19 05:07:40;;;;;;;9.20;5.80;;;;;;;0.43;67.13;101446.88;107502;1253;111241;-62
2023/11/19 05:10:08;;;;;;;9.60;6.60;;;;;;;0.42;67.23;101445.15;107634;1251;108943;-60
2023/11/19 05:12:37;;;;;;;11.30;6.60;;;;;;;0.41;67.09;101444.13;107606;1251;106694;-61
2023/11/19 05:15:05;;;;;;;13.00;7.20;;;;;;;0.39;67.32;101444.54;107579;1252;98377;-61
2023/11/19 05:17:34;;;;;;;10.80;6.60;;;;;;;0.37;67.77;101447.27;107608;1253;98376;-59
2023/11/19 05:20:03;;;;;;;12.20;6.90;;;;;;;0.38;68.24;101446.01;107604;1251;112153;-59
2023/11/19 05:22:32;;;;;;;11.10;6.80;;;;;;;0.37;68.40;101441.95;107662;1251;110050;-60
2023/11/19 05:25:00;;;;;;;7.80;5.90;;;;;;;0.40;68.48;101439.95;107584;1251;107970;-60
2023/11/19 05:27:28;;;;;;;9.80;6.90;;;;;;;0.41;68.47;101441.81;107571;1251;97918;-61
2023/11/19 05:29:56;;;;;;;9.20;5.70;;;;;;;0.42;68.51;101443.73;107615;1251;97921;-61
2023/11/19 05:32:24;;;;;;;8.60;6.80;;;;;;;0.43;68.41;101442.11;107608;1250;111314;-61
2023/11/19 05:34:52;;;;;;;13.70;7.30;;;;;;;0.45;68.81;101441.69;107610;1253;110918;-59
2023/11/19 05:37:21;;;;;;;9.50;6.10;;;;;;;0.45;68.51;101438.18;107625;1251;107726;-61
2023/11/19 05:39:49;;;;;;;10.80;6.20;;;;;;;0.44;68.74;101440.51;107558;1251;97845;-60
2023/11/19 05:42:17;;;;;;;9.80;6.60;;;;;;;0.43;68.57;101445.64;107647;1251;97710;-60
2023/11/19 05:44:46;;;;;;;7.90;5.70;;;;;;;0.44;68.42;101455.13;107593;1251;111738;-59
2023/11/19 05:47:14;;;;;;;8.50;6.30;;;;;;;0.45;68.15;101454.02;107570;1251;108763;-59
2023/11/19 05:49:43;;;;;;;8.50;5.70;;;;;;;0.46;68.61;101446.24;107555;1255;108175;-60
2023/11/19 05:52:12;;;;;;;10.30;6.20;;;;;;;0.49;68.43;101440.70;107624;1251;97796;-61
2023/11/19 05:54:41;;;;;;;6.30;5.00;;;;;;;0.53;68.58;101444.79;107656;1251;97733;-61
2023/11/19 05:57:10;;;;;;;7.10;5.10;;;;;;;0.56;67.51;101444.13;107573;1251;111528;-61
2023/11/19 05:59:38;;;;;;;7.40;4.70;;;;;;;0.55;67.60;101444.16;107609;1250;109933;-61
2023/11/19 06:02:06;;;;;;;6.70;4.30;;;;;;;0.52;67.46;101444.45;107615;1251;108462;-62
2023/11/19 06:04:35;;;;;;;7.10;4.40;;;;;;;0.47;66.87;101440.20;107555;1251;97835;-61
2023/11/19 06:07:05;;;;;;;7.90;4.60;;;;;;;0.42;66.87;101438.61;107619;1251;97818;-61
2023/11/19 06:09:33;;;;;;;5.60;4.30;;;;;;;0.40;66.34;101450.35;107631;1251;111345;-60
2023/11/19 06:12:02;;;;;;;5.80;3.90;;;;;;;0.35;66.02;101457.57;107618;1252;108977;-61
2023/11/19 06:14:30;;;;;;;6.10;3.90;;;;;;;0.30;65.73;101458.27;107602;1251;108586;-61
2023/11/19 06:16:59;;;;;;;3.90;3.00;;;;;;;0.26;65.62;101456.27;107484;1251;97854;-60
2023/11/19 06:19:28;;;;;;;5.80;3.70;;;;;;;0.25;64.76;101451.56;107600;1251;97848;-61
2023/11/19 06:21:58;;;;;;;5.30;3.40;;;;;;;0.22;64.80;101451.13;107585;1253;111387;-61
2023/11/19 06:24:26;;;;;;;5.30;3.80;;;;;;;0.20;64.31;101458.08;107622;1255;110042;-60
2023/11/19 06:26:55;;;;;;;5.00;3.00;;;;;;;0.20;63.64;101460.39;107606;1253;108161;-59
2023/11/19 06:29:23;;;;;;;4.50;3.20;;;;;;;0.18;63.59;101472.29;107626;1253;97698;-60
2023/11/19 06:31:51;;;;;;;6.80;3.40;;;;;;;0.17;63.24;101478.85;107644;1252;98312;-60
2023/11/19 06:34:19;;;;;;;5.50;3.50;;;;;;;0.14;62.59;101476.60;107628;1253;112993;-60
2023/11/19 06:36:48;;;;;;;4.30;3.00;;;;;;;0.11;62.72;101472.84;107675;1255;109699;-61
2023/11/19 06:39:18;;;;;;;6.10;3.80;;;;;;;0.08;63.53;101472.77;107599;1251;107548;-61
2023/11/19 06:41:47;;;;;;;11.60;3.70;;;;;;;0.11;63.72;101478.83;107536;1252;97827;-60
2023/11/19 06:44:15;;;;;;;11.80;3.80;;;;;;;0.19;63.35;101476.63;107581;1251;98340;-63
2023/11/19 06:46:44;;;;;;;4.80;3.90;;;;;;;0.21;62.99;101472.33;107658;1251;111657;-60
2023/11/19 06:49:12;;;;;;;6.10;3.30;;;;;;;0.22;63.28;101470.38;107634;1251;109474;-60
2023/11/19 06:51:44;;;;;;;4.90;3.20;;;;;;;0.22;63.49;101472.66;107566;1253;107908;-60
2023/11/19 06:54:12;;;;;;;4.30;3.40;;;;;;;0.24;63.59;101472.42;107621;1252;97840;-61
2023/11/19 06:56:41;;;;;;;7.20;3.80;;;;;;;0.24;63.57;101470.64;107656;1252;98748;-61
2023/11/19 06:59:10;;;;;;;6.10;4.10;;;;;;;0.27;63.59;101464.03;107588;1252;111455;-59
2023/11/19 07:01:38;;;;;;;9.10;4.30;;;;;;;0.30;63.83;101457.20;107429;1252;109801;-61
2023/11/19 07:04:10;;;;;;;6.00;3.30;;;;;;;0.34;64.12;101461.13;107603;1251;108212;-61
2023/11/19 07:06:40;;;;;;;5.50;4.00;;;;;;;0.38;63.98;101457.46;107586;1251;97961;-60
2023/11/19 07:09:09;;;;;;;4.30;3.00;;;;;;;0.43;63.94;101450.92;107569;1251;98472;-61
2023/11/19 07:11:40;;;;;;;4.50;3.20;;;;;;;0.51;63.07;101455.62;107559;1252;111205;-61
2023/11/19 07:14:08;;;;;;;9.50;3.60;;;;;;;0.55;63.50;101452.11;107561;1253;109950;-60
2023/11/19 07:16:38;;;;;;;5.00;3.70;;;;;;;0.58;63.32;101448.64;107621;1253;108889;-60
2023/11/19 07:19:07;;;;;;;7.90;4.10;;;;;;;0.60;62.95;101448.04;107633;1253;97865;-60
2023/11/19 07:21:39;;;;;;;7.80;3.50;;;;;;;0.60;63.03;101448.06;107602;1253;97926;-60
2023/11/19 07:24:08;;;;;;;5.40;3.30;;;;;;;0.61;62.25;101436.70;107594;1253;112409;-62
2023/11/19 07:26:40;;;;;;;4.00;3.00;;;;;;;0.64;61.97;101434.66;107554;1253;109974;-60
2023/11/19 07:29:08;;;;;;;4.80;3.30;;;;;;;0.63;62.18;101436.46;107606;1255;107656;-61
2023/11/19 07:31:36;;;;;;;4.80;3.50;;;;;;;0.64;61.94;101435.90;107571;1251;97828;-61
2023/11/19 07:34:06;;;;;;;7.30;3.30;;;;;;;0.64;61.49;101437.68;107610;1252;98030;-62
2023/11/19 07:36:35;;;;;;;6.40;3.50;;;;;;;0.61;61.91;101449.58;107599;1253;111315;-62
2023/11/19 07:39:04;;;;;;;7.40;3.70;;;;;;;0.59;62.45;101446.86;107629;1251;109790;-64
2023/11/19 07:41:33;;;;;;;6.00;3.90;;;;;;;0.60;62.61;101446.62;107556;1252;107945;-61
2023/11/19 07:44:06;;;;;;;5.80;3.70;;;;;;;0.63;62.02;101437.35;107596;1252;97903;-60
2023/11/19 07:46:35;;;;;;;4.60;3.20;;;;;;;0.62;62.01;101437.00;107660;1253;97932;-60
2023/11/19 07:49:03;;;;;;;4.80;3.60;;;;;;;0.62;62.42;101438.61;107454;1251;112414;-60
2023/11/19 07:51:32;;;;;;;7.30;4.10;;;;;;;0.62;62.84;101440.36;107619;1253;109942;-59
2023/11/19 07:54:00;;;;;;;7.60;4.10;;;;;;;0.66;63.04;101444.32;107536;1253;107269;-60
2023/11/19 07:56:28;;;;;;;6.00;3.50;;;;;;;0.69;63.66;101440.66;107558;1253;97717;-61
2023/11/19 07:58:57;;;;;;;5.70;3.50;;;;;;;0.69;63.67;101449.48;107591;1251;97919;-60
2023/11/19 08:01:25;;;;;;;7.10;3.70;;;;;;;0.72;63.34;101451.34;107572;1252;112927;-61
2023/11/19 08:03:54;;;;;;;7.50;3.60;;;;;;;0.70;62.79;101454.21;107633;1250;109251;-59
2023/11/19 08:06:25;;;;;;;7.70;3.40;;;;;;;0.67;62.80;101457.35;107612;1251;108589;-59
2023/11/19 08:08:53;;;;;;;7.80;3.70;;;;;;;0.64;62.17;101466.10;107626;1253;97824;-59
2023/11/19 08:11:21;;;;;;;4.70;3.00;;;;;;;0.59;61.42;101464.45;107550;1251;97735;-60
2023/11/19 08:13:49;;;;;;;3.90;3.10;;;;;;;0.54;61.47;101466.10;107619;1253;112264;-59
2023/11/19 08:16:17;;;;;;;7.20;4.10;;;;;;;0.52;61.73;101470.06;107605;1251;109214;-60
2023/11/19 08:18:46;;;;;;;5.90;3.80;;;;;;;0.50;61.33;101475.05;107643;1253;107438;-59
2023/11/19 08:21:14;;;;;;;7.40;4.30;;;;;;;0.49;61.30;101482.15;107525;1251;98010;-59
2023/11/19 08:23:43;;;;;;;7.00;3.90;;;;;;;0.45;61.66;101480.86;107624;1251;98359;-59
2023/11/19 08:26:11;;;;;;;7.90;4.80;;;;;;;0.44;62.08;101484.77;107621;1252;111958;-60
2023/11/19 08:28:39;;;;;;;5.20;3.50;;;;;;;0.48;62.45;101483.60;107599;1253;110976;-60
2023/11/19 08:31:07;;;;;;;6.20;4.20;;;;;;;0.52;61.57;101487.71;107537;1252;107017;-60
2023/11/19 08:33:36;;;;;;;6.90;4.50;;;;;;;0.50;61.73;101495.53;107521;1253;97839;-60
2023/11/19 08:36:06;;;;;;;4.00;3.50;;;;;;;0.50;62.13;101494.48;107635;1253;98357;-62
2023/11/19 08:38:34;;;;;;;8.80;3.90;;;;;;;0.54;62.18;101488.31;107621;1253;110243;-60
2023/11/19 08:41:03;;;;;;;7.60;4.60;;;;;;;0.62;62.55;101480.10;107560;1253;109738;-59
2023/11/19 08:43:31;;;;;;;5.50;3.80;;;;;;;0.73;62.77;101471.78;107584;1252;107664;-60
2023/11/19 08:46:00;;;;;;;6.30;4.00;;;;;;;0.84;62.10;101468.38;107614;1254;97836;-59
2023/11/19 08:48:28;;;;;;;5.40;3.90;;;;;;;0.92;62.16;101463.49;107625;1251;97822;-61
2023/11/19 08:50:57;;;;;;;7.90;4.50;;;;;;;0.99;61.30;101456.17;107536;1253;112872;-61
2023/11/19 08:53:26;;;;;;;5.50;3.80;;;;;;;1.02;61.09;101455.35;107617;1252;110399;-60
2023/11/19 08:55:54;;;;;;;7.90;4.60;;;;;;;1.04;61.87;101449.96;107586;1251;107449;-58
2023/11/19 08:58:22;;;;;;;5.80;3.80;;;;;;;1.13;61.71;101438.33;107587;1251;97910;-60
2023/11/19 09:00:51;;;;;;;4.80;3.10;;;;;;;1.19;60.70;101424.84;107570;1251;98447;-61
2023/11/19 09:03:20;;;;;;;4.70;3.00;;;;;;;1.20;60.00;101420.58;107587;1254;111855;-59
2023/11/19 09:05:49;;;;;;;5.80;3.40;;;;;;;1.21;59.84;101417.71;107657;1254;109849;-61
2023/11/19 09:08:17;;;;;;;8.20;3.30;;;;;;;1.22;59.79;101412.70;107535;1251;108135;-61
2023/11/19 09:10:46;;;;;;;5.20;3.10;;;;;;;1.25;60.19;101406.95;107569;1251;97838;-62
2023/11/19 09:13:14;;;;;;;4.50;3.00;;;;;;;1.29;60.56;101405.36;107656;1252;99201;-61
2023/11/19 09:15:43;;;;;;;5.10;3.00;;;;;;;1.37;59.82;101394.44;107624;1251;112166;-60
2023/11/19 09:18:11;;;;;;;4.30;2.60;;;;;;;1.43;58.81;101398.98;107622;1251;110057;-59
2023/11/19 09:20:40;;;;;;;5.70;3.20;;;;;;;1.48;58.66;101402.48;107627;1251;108371;-61
2023/11/19 09:23:08;;;;;;;4.00;2.90;;;;;;;1.50;57.71;101403.99;107544;1253;97848;-61
2023/11/19 09:25:37;;;;;;;7.30;4.40;;;;;;;1.47;56.82;101398.46;107623;1251;98418;-61
2023/11/19 09:28:08;;;;;;;4.80;2.90;;;;;;;1.42;58.10;101396.73;107656;1251;111951;-60
2023/11/19 09:30:37;;;;;;;3.30;2.60;;;;;;;1.44;58.15;101395.22;107596;1251;109890;-60
2023/11/19 09:33:06;;;;;;;6.20;3.10;;;;;;;1.46;58.12;101394.82;107591;1254;107337;-60
2023/11/19 09:35:34;;;;;;;5.90;3.40;;;;;;;1.45;57.83;101386.52;107610;1251;97913;-62
2023/11/19 09:38:05;;;;;;;7.30;3.30;;;;;;;1.45;57.70;101378.04;107614;1251;98363;-60
2023/11/19 09:40:33;;;;;;;4.00;2.80;;;;;;;1.43;57.81;101379.20;107619;1251;112420;-61
2023/11/19 09:43:02;;;;;;;17.80;5.20;;;;;;;1.40;58.15;101377.73;107622;1251;108760;-60
2023/11/19 09:45:32;;;;;;;8.50;3.20;;;;;;;1.39;58.78;101369.27;107611;1251;107911;-60
2023/11/19 09:48:02;;;;;;;5.30;3.10;;;;;;;1.45;58.98;101354.70;107642;1251;97809;-60
2023/11/19 09:50:31;;;;;;;5.80;3.40;;;;;;;1.49;59.11;101343.77;107603;1250;97940;-59
2023/11/19 09:52:59;;;;;;;6.40;2.70;;;;;;;1.54;58.68;101337.02;107604;1251;111773;-60
2023/11/19 09:55:27;;;;;;;3.70;2.50;;;;;;;1.55;58.46;101333.42;107614;1251;108491;-59
2023/11/19 09:58:00;;;;;;;4.10;2.90;;;;;;;1.56;58.51;101328.62;107577;1251;107646;-60
2023/11/19 10:00:29;;;;;;;6.40;3.10;;;;;;;1.55;58.69;101329.17;107737;1252;97833;-60
2023/11/19 10:03:00;;;;;;;9.20;3.60;;;;;;;1.61;59.09;101328.41;107592;1252;97736;-60
2023/11/19 10:05:28;;;;;;;5.20;2.80;;;;;;;1.65;59.06;101323.84;107667;1251;112231;-59
2023/11/19 10:07:58;;;;;;;4.60;3.30;;;;;;;1.66;58.05;101315.98;107686;1255;108993;-62
2023/11/19 10:10:26;;;;;;;5.10;3.40;;;;;;;1.58;58.69;101314.57;107613;1251;108192;-60
2023/11/19 10:12:55;;;;;;;24.70;4.30;;;;;;;1.60;59.16;101314.70;107223;1253;472069;-60
2023/11/19 10:15:26;;;;;;;4.70;3.40;;;;;;;1.64;58.48;101314.88;107579;1253;98382;-59
2023/11/19 10:17:56;;;;;;;5.80;3.80;;;;;;;1.62;58.95;101313.69;107616;1255;111327;-60
2023/11/19 10:20:25;;;;;;;5.80;3.50;;;;;;;1.66;58.84;101304.33;107603;1253;108427;-59
2023/11/19 10:22:54;;;;;;;11.00;3.80;;;;;;;1.67;59.04;101309.06;107561;1253;107041;-59
2023/11/19 10:25:28;;;;;;;9.60;4.70;;;;;;;1.69;59.41;101310.58;107678;1251;97813;-59
2023/11/19 10:27:57;;;;;;;8.10;4.00;;;;;;;1.73;59.55;101313.23;107673;1251;97813;-60
2023/11/19 10:30:29;;;;;;;5.80;3.80;;;;;;;1.75;59.23;101312.11;107625;1255;110726;-61
2023/11/19 10:33:08;;;;;;;5.80;3.50;;;;;;;1.74;58.92;101305.77;107605;1255;109319;-61
2023/11/19 10:35:53;;;;;;;7.00;4.20;;;;;;;1.71;58.92;101303.94;107556;1253;108477;-61
2023/11/19 10:38:26;;;;;;;9.30;4.20;;;;;;;1.67;58.68;101305.02;107555;1255;97894;-60
2023/11/19 10:40:54;;;;;;;5.40;3.50;;;;;;;1.63;58.96;101305.73;107620;1252;98340;-60
2023/11/19 10:43:23;;;;;;;5.80;3.50;;;;;;;1.61;59.57;101306.69;107569;1256;111747;-60
2023/11/19 10:45:52;;;;;;;5.40;3.80;;;;;;;1.59;60.09;101301.09;107533;1253;109981;-60
2023/11/19 10:48:23;;;;;;;6.10;3.70;;;;;;;1.61;59.78;101298.90;107601;1251;108256;-60
2023/11/19 10:50:57;;;;;;;6.50;4.30;;;;;;;1.64;59.67;101296.83;107595;1253;97817;-60
2023/11/19 10:53:27;;;;;;;9.40;4.10;;;;;;;1.64;59.76;101291.88;107579;1253;97852;-60
2023/11/19 10:55:59;;;;;;;5.30;3.30;;;;;;;1.67;59.67;101289.61;107683;1252;110342;-59
2023/11/19 10:58:32;;;;;;;7.10;4.00;;;;;;;1.70;59.44;101289.64;107617;1250;110079;-60
2023/11/19 11:01:11;;;;;;;5.30;3.70;;;;;;;1.68;58.72;101284.44;107601;1251;106589;-59
2023/11/19 11:03:41;;;;;;;8.30;4.00;;;;;;;1.61;59.13;101285.61;107539;1253;97868;-60
2023/11/19 11:06:11;;;;;;;8.40;4.20;;;;;;;1.56;58.95;101288.69;107639;1251;97728;-60
2023/11/19 11:08:40;;;;;;;5.90;3.50;;;;;;;1.49;58.79;101287.73;107610;1251;110751;-60
2023/11/19 11:11:13;;;;;;;6.10;3.20;;;;;;;1.44;59.45;101290.94;107613;1254;109728;-61
2023/11/19 11:13:43;;;;;;;4.80;3.20;;;;;;;1.44;59.43;101293.06;107566;1253;107704;-60
2023/11/19 11:16:12;;;;;;;5.30;3.50;;;;;;;1.44;59.35;101293.59;107576;1252;97949;-59
2023/11/19 11:18:41;;;;;;;8.10;3.40;;;;;;;1.47;59.70;101293.30;107651;1255;97718;-61
2023/11/19 11:21:18;;;;;;;9.50;3.90;;;;;;;1.48;59.69;101290.23;107634;1253;111559;-60
2023/11/19 11:24:23;;;;;;;6.90;3.60;;;;;;;1.52;59.78;101285.83;107517;1253;109445;-61
2023/11/19 11:26:57;;;;;;;;;;;;;;;1.58;58.69;101282.59;107569;1253;107737;-60
2023/11/19 11:29:41;;;;;;;7.60;3.30;;;;;;;1.53;58.22;101278.89;107592;1254;97832;-59